Open Text Debt to Equity Ratio 2006-2019 | OTEX

Current and historical debt to equity ratio values for Open Text (OTEX) over the last 10 years. The debt/equity ratio can be defined as a measure of a company's financial leverage calculated by dividing its long-term debt by stockholders' equity. Open Text debt/equity for the three months ending June 30, 2019 was 0.67.
Open Text Debt/Equity Ratio Historical Data
Date Long Term Debt Shareholder's Equity Debt to Equity Ratio
2019-06-30 $2.61B $3.89B 0.67
2019-03-31 $2.61B $3.84B 0.68
2018-12-31 $2.61B $3.79B 0.69
2018-09-30 $2.61B $3.73B 0.70
2018-06-30 $2.61B $3.72B 0.70
2018-03-31 $2.39B $3.70B 0.65
2017-12-31 $2.39B $3.63B 0.66
2017-09-30 $2.39B $3.57B 0.67
2017-06-30 $2.39B $3.53B 0.68
2017-03-31 $2.39B $3.50B 0.68
2016-12-31 $2.39B $3.49B 0.69
2016-09-30 $2.14B $2.88B 0.74
2016-06-30 $2.14B $1.98B 1.08
2016-03-31 $1.57B $1.91B 0.82
2015-12-31 $1.58B $1.85B 0.85
2015-09-30 $1.58B $1.81B 0.87
2015-06-30 $1.55B $1.83B 0.85
2015-03-31 $1.58B $1.78B 0.89
2014-12-31 $1.23B $1.76B 0.70
2014-09-30 $1.24B $1.70B 0.73
2014-06-30 $1.26B $1.64B 0.77
2014-03-31 $1.27B $1.57B 0.81
2013-12-31 $0.49B $1.41B 0.35
2013-09-30 $0.50B $1.36B 0.37
2013-06-30 $0.51B $1.34B 0.38
2013-03-31 $0.53B $1.30B 0.41
2012-12-31 $0.54B $1.27B 0.42
2012-09-30 $0.55B $1.21B 0.45
2012-06-30 $0.56B $1.18B 0.47
2012-03-31 $0.56B $1.18B 0.48
2011-12-31 $0.57B $1.13B 0.51
2011-09-30 $0.28B $1.07B 0.26
2011-06-30 $0.28B $1.04B 0.27
2011-03-31 $0.28B $1.01B 0.28
2010-12-31 $0.28B $0.96B 0.30
2010-09-30 $0.28B $0.92B 0.31
2010-06-30 $0.29B $0.89B 0.32
2010-03-31 $0.29B $0.86B 0.33
2009-12-31 $0.30B $0.86B 0.35
2009-09-30 $0.30B $0.84B 0.36
2009-06-30 $0.30B $0.69B 0.44
2009-03-31 $0.30B $0.62B 0.48
2008-12-31 $0.30B $0.61B 0.49
2008-09-30 $0.30B $0.62B 0.49
2008-06-30 $0.30B $0.64B 0.48
2008-03-31 $0.31B $0.64B 0.48
2007-12-31 $0.31B $0.59B 0.52
2007-09-30 $0.34B $0.56B 0.60
2007-06-30 $0.37B $0.52B 0.70
2007-03-31 $0.40B $0.50B 0.79
2006-12-31 $0.40B $0.48B 0.82
2006-09-30 $0.01B $0.47B 0.03
2006-06-30 $0.01B $0.46B 0.03
2006-03-31 $0.01B $0.43B 0.03
2005-12-31 $0.01B $0.41B 0.03
2005-09-30 $0.00B $0.41B 0.00
2005-06-30 $0.00B $0.42B 0.00
2005-03-31 $0.00B $0.43B 0.00
Sector Industry Market Cap Revenue
Computer and Technology Computer Software $11.034B $2.869B
Open Text Corporation is engaged in development of innovative intranet, extranet and e-Business applications. Since creating one of the first search engines to index the World Wide Web, the company has remained at the forefront of Internet-based technologies. Open Text solutions allow individuals, teams, organizations, and global trading communities to collaborate on projects, share ideas and accelerate innovation to the fastest possible speed. Open Text Corporation is headquartered in Waterloo, Canada.
Stock Name Country Market Cap PE Ratio
Microsoft (MSFT) United States $1000.000B 29.41
Oracle (ORCL) United States $180.735B 16.68
SAP SE (SAP) Germany $153.497B 30.84
Adobe (ADBE) United States $130.333B 44.14
Salesforce, Inc (CRM) United States $128.191B 100.12
Intuit (INTU) United States $69.317B 48.02
VMware (VMW) United States $62.145B 30.91
Dassault Systemes SA (DASTY) France $39.373B 44.39
Autodesk (ADSK) United States $31.680B 212.16
Synopsys (SNPS) United States $20.564B 33.46
ANSYS (ANSS) United States $18.575B 41.21
Cadence Design Systems (CDNS) United States $18.490B 43.71
Symantec (SYMC) United States $14.511B 17.92
Citrix Systems (CTXS) United States $13.194B 24.52
SS&C Technologies Holdings (SSNC) United States $12.703B 15.08
Aspen Technology (AZPN) United States $8.179B 31.65
PTC (PTC) United States $7.423B 62.57
Trend Micro (TMICY) Japan $6.849B 26.93
Konami (KNMCY) Japan $6.349B 20.96
Pegasystems (PEGA) United States $5.903B 0.00
Manhattan Associates (MANH) United States $5.244B 55.46
Nuance Communications (NUAN) United States $4.499B 16.93
Blackbaud (BLKB) United States $4.420B 57.62
ACI Worldwide (ACIW) United States $3.680B 35.83
Descartes Systems Group (DSGX) Canada $3.408B 103.87
Cornerstone OnDemand (CSOD) United States $3.342B 0.00
Verint Systems (VRNT) United States $2.900B 17.10
PROS Holdings (PRO) United States $2.385B 0.00
CommVault Systems (CVLT) United States $2.069B 86.42
Progress Software (PRGS) United States $1.821B 18.07
Bottomline Technologies (EPAY) United States $1.764B 75.89
MicroStrategy (MSTR) United States $1.472B 653.27
Sapiens (SPNS) Israel $0.993B 31.48
QAD (QADB) United States $0.722B 169.05
Simulations Plus (SLP) United States $0.615B 79.77
American Software (AMSWA) United States $0.509B 58.00
Magic Software Enterprises (MGIC) Israel $0.448B 16.98
Rosetta Stone (RST) United States $0.431B 0.00
Avid Technology (AVID) United States $0.287B 14.87
Smith Micro Software (SMSI) United States $0.232B 39.31
GlobalSCAPE (GSB) United States $0.200B 20.25
OptimizeRx (OPRX) United States $0.199B 281.60
Icad Inc (ICAD) United States $0.143B 0.00
Park City (PCYG) United States $0.107B 29.89
ServiceSource (SREV) United States $0.082B 0.00
NetSol Technologies (NTWK) United States $0.061B 7.08
GSE Systems (GVP) United States $0.032B 12.15
Neonode (NEON) Sweden $0.022B 0.00
BSQUARE (BSQR) United States $0.014B 0.00
CounterPath (CPAH) Canada $0.007B 0.00